sensor_id;sensor_type;location;lat;lon;timestamp;temperature;humidity
23207;DHT22;11773;52.570;13.052;2023-04-02T00:01:17;5.80;99.90
23207;DHT22;11773;52.570;13.052;2023-04-02T00:06:36;5.80;99.90
23207;DHT22;11773;52.570;13.052;2023-04-02T00:09:19;5.40;99.90
23207;DHT22;11773;52.570;13.052;2023-04-02T00:11:52;5.50;99.90
23207;DHT22;11773;52.570;13.052;2023-04-02T00:14:28;5.30;99.90
23207;DHT22;11773;52.570;13.052;2023-04-02T00:17:03;5.40;99.90
23207;DHT22;11773;52.570;13.052;2023-04-02T00:19:42;5.60;99.90
23207;DHT22;11773;52.570;13.052;2023-04-02T00:22:30;5.50;99.90
23207;DHT22;11773;52.570;13.052;2023-04-02T00:25:06;5.50;99.90
23207;DHT22;11773;52.570;13.052;2023-04-02T00:27:35;5.50;99.90
23207;DHT22;11773;52.570;13.052;2023-04-02T00:30:05;5.50;99.90
23207;DHT22;11773;52.570;13.052;2023-04-02T00:32:36;5.40;99.90
23207;DHT22;11773;52.570;13.052;2023-04-02T00:35:12;5.50;99.90
23207;DHT22;11773;52.570;13.052;2023-04-02T00:37:49;5.40;99.90
23207;DHT22;11773;52.570;13.052;2023-04-02T00:40:28;5.40;99.90
23207;DHT22;11773;52.570;13.052;2023-04-02T00:43:00;5.30;99.90
23207;DHT22;11773;52.570;13.052;2023-04-02T00:45:34;5.40;99.90
23207;DHT22;11773;52.570;13.052;2023-04-02T00:48:19;5.60;99.90
23207;DHT22;11773;52.570;13.052;2023-04-02T00:50:46;5.60;99.90
23207;DHT22;11773;52.570;13.052;2023-04-02T00:53:23;5.30;99.90
23207;DHT22;11773;52.570;13.052;2023-04-02T00:55:56;5.40;99.90
23207;DHT22;11773;52.570;13.052;2023-04-02T00:58:28;5.40;99.90
23207;DHT22;11773;52.570;13.052;2023-04-02T01:01:00;5.50;99.90
23207;DHT22;11773;52.570;13.052;2023-04-02T01:03:34;5.40;99.90
23207;DHT22;11773;52.570;13.052;2023-04-02T01:06:14;5.20;99.90
23207;DHT22;11773;52.570;13.052;2023-04-02T01:08:59;5.30;99.90
23207;DHT22;11773;52.570;13.052;2023-04-02T01:14:41;5.40;99.90
23207;DHT22;11773;52.570;13.052;2023-04-02T01:17:59;5.40;99.90
23207;DHT22;11773;52.570;13.052;2023-04-02T01:20:55;5.20;99.90
23207;DHT22;11773;52.570;13.052;2023-04-02T01:26:54;5.30;99.90
23207;DHT22;11773;52.570;13.052;2023-04-02T01:29:28;5.40;99.90
23207;DHT22;11773;52.570;13.052;2023-04-02T01:32:11;5.10;99.90
23207;DHT22;11773;52.570;13.052;2023-04-02T01:34:45;5.30;99.90
23207;DHT22;11773;52.570;13.052;2023-04-02T01:40:09;5.50;99.90
23207;DHT22;11773;52.570;13.052;2023-04-02T01:43:00;5.50;99.90
23207;DHT22;11773;52.570;13.052;2023-04-02T01:45:30;5.50;99.90
23207;DHT22;11773;52.570;13.052;2023-04-02T01:48:16;5.50;99.90
23207;DHT22;11773;52.570;13.052;2023-04-02T01:50:50;5.60;99.90
23207;DHT22;11773;52.570;13.052;2023-04-02T01:53:24;5.70;99.90
23207;DHT22;11773;52.570;13.052;2023-04-02T01:56:00;5.60;99.90
23207;DHT22;11773;52.570;13.052;2023-04-02T01:58:32;5.70;99.90
23207;DHT22;11773;52.570;13.052;2023-04-02T02:01:10;5.70;99.90
23207;DHT22;11773;52.570;13.052;2023-04-02T02:03:37;5.70;99.90
23207;DHT22;11773;52.570;13.052;2023-04-02T02:06:10;5.80;99.90
23207;DHT22;11773;52.570;13.052;2023-04-02T02:08:51;5.50;99.90
23207;DHT22;11773;52.570;13.052;2023-04-02T02:11:28;5.50;99.90
23207;DHT22;11773;52.570;13.052;2023-04-02T02:14:01;5.20;99.90
23207;DHT22;11773;52.570;13.052;2023-04-02T02:16:39;5.40;99.90
23207;DHT22;11773;52.570;13.052;2023-04-02T02:19:24;5.20;99.90
23207;DHT22;11773;52.570;13.052;2023-04-02T02:25:05;5.40;99.90
23207;DHT22;11773;52.570;13.052;2023-04-02T02:30:30;5.40;99.90
23207;DHT22;11773;52.570;13.052;2023-04-02T02:33:23;5.40;99.90
23207;DHT22;11773;52.570;13.052;2023-04-02T02:35:56;5.40;99.90
23207;DHT22;11773;52.570;13.052;2023-04-02T02:38:39;5.40;99.90
23207;DHT22;11773;52.570;13.052;2023-04-02T02:41:27;5.30;99.90
23207;DHT22;11773;52.570;13.052;2023-04-02T02:46:59;5.40;99.90
23207;DHT22;11773;52.570;13.052;2023-04-02T02:49:31;5.30;99.90
23207;DHT22;11773;52.570;13.052;2023-04-02T02:54:51;5.40;99.90
23207;DHT22;11773;52.570;13.052;2023-04-02T02:57:26;5.40;99.90
23207;DHT22;11773;52.570;13.052;2023-04-02T02:59:59;5.40;99.90
23207;DHT22;11773;52.570;13.052;2023-04-02T03:02:34;5.40;99.90
23207;DHT22;11773;52.570;13.052;2023-04-02T03:05:06;5.50;99.90
23207;DHT22;11773;52.570;13.052;2023-04-02T03:07:37;5.50;99.90
23207;DHT22;11773;52.570;13.052;2023-04-02T03:11:00;5.40;99.90
23207;DHT22;11773;52.570;13.052;2023-04-02T03:13:02;5.40;99.90
23207;DHT22;11773;52.570;13.052;2023-04-02T03:18:57;5.50;99.90
23207;DHT22;11773;52.570;13.052;2023-04-02T03:21:47;5.40;99.90
23207;DHT22;11773;52.570;13.052;2023-04-02T03:24:35;5.40;99.90
23207;DHT22;11773;52.570;13.052;2023-04-02T03:32:25;5.40;99.90
23207;DHT22;11773;52.570;13.052;2023-04-02T03:35:05;5.50;99.90
23207;DHT22;11773;52.570;13.052;2023-04-02T03:40:57;5.40;99.90
23207;DHT22;11773;52.570;13.052;2023-04-02T03:43:34;5.40;99.90
23207;DHT22;11773;52.570;13.052;2023-04-02T03:49:25;5.50;99.90
23207;DHT22;11773;52.570;13.052;2023-04-02T03:52:04;5.50;99.90
23207;DHT22;11773;52.570;13.052;2023-04-02T03:54:34;5.70;99.90
23207;DHT22;11773;52.570;13.052;2023-04-02T03:57:53;5.40;99.90
23207;DHT22;11773;52.570;13.052;2023-04-02T04:00:03;5.40;99.90
23207;DHT22;11773;52.570;13.052;2023-04-02T04:02:51;5.40;99.90
23207;DHT22;11773;52.570;13.052;2023-04-02T04:05:32;5.50;99.90
23207;DHT22;11773;52.570;13.052;2023-04-02T04:08:32;5.40;99.90
23207;DHT22;11773;52.570;13.052;2023-04-02T04:10:43;5.30;99.90
23207;DHT22;11773;52.570;13.052;2023-04-02T04:13:18;5.30;99.90
23207;DHT22;11773;52.570;13.052;2023-04-02T04:15:57;5.30;99.90
23207;DHT22;11773;52.570;13.052;2023-04-02T04:18:32;5.20;99.90
23207;DHT22;11773;52.570;13.052;2023-04-02T04:21:24;5.40;99.90
23207;DHT22;11773;52.570;13.052;2023-04-02T04:24:11;5.50;99.90
23207;DHT22;11773;52.570;13.052;2023-04-02T04:26:55;5.60;99.90
23207;DHT22;11773;52.570;13.052;2023-04-02T04:29:40;5.60;99.90
23207;DHT22;11773;52.570;13.052;2023-04-02T04:32:27;5.60;99.90
23207;DHT22;11773;52.570;13.052;2023-04-02T04:35:24;5.50;99.90
23207;DHT22;11773;52.570;13.052;2023-04-02T04:38:01;5.70;99.90
23207;DHT22;11773;52.570;13.052;2023-04-02T04:40:56;5.60;99.90
23207;DHT22;11773;52.570;13.052;2023-04-02T04:43:39;5.70;99.90
23207;DHT22;11773;52.570;13.052;2023-04-02T04:46:34;5.70;99.90
23207;DHT22;11773;52.570;13.052;2023-04-02T04:49:31;5.50;99.90
23207;DHT22;11773;52.570;13.052;2023-04-02T04:52:37;5.60;99.90
23207;DHT22;11773;52.570;13.052;2023-04-02T04:55:28;5.40;99.90
23207;DHT22;11773;52.570;13.052;2023-04-02T04:58:07;5.40;99.90
23207;DHT22;11773;52.570;13.052;2023-04-02T05:01:02;5.40;99.90
23207;DHT22;11773;52.570;13.052;2023-04-02T05:03:59;5.60;99.90
23207;DHT22;11773;52.570;13.052;2023-04-02T05:06:59;5.60;99.90
23207;DHT22;11773;52.570;13.052;2023-04-02T05:10:06;5.60;99.90
23207;DHT22;11773;52.570;13.052;2023-04-02T05:15:39;5.70;99.90
23207;DHT22;11773;52.570;13.052;2023-04-02T05:18:35;5.70;99.90
23207;DHT22;11773;52.570;13.052;2023-04-02T05:24:39;5.90;99.90
23207;DHT22;11773;52.570;13.052;2023-04-02T05:27:43;5.80;99.90
23207;DHT22;11773;52.570;13.052;2023-04-02T05:36:05;5.50;99.90
23207;DHT22;11773;52.570;13.052;2023-04-02T05:38:42;5.50;99.90
23207;DHT22;11773;52.570;13.052;2023-04-02T05:41:26;5.50;99.90
23207;DHT22;11773;52.570;13.052;2023-04-02T05:47:21;5.40;99.90
23207;DHT22;11773;52.570;13.052;2023-04-02T05:49:19;5.60;99.90
23207;DHT22;11773;52.570;13.052;2023-04-02T05:51:51;5.50;99.90
23207;DHT22;11773;52.570;13.052;2023-04-02T05:54:28;5.40;99.90
23207;DHT22;11773;52.570;13.052;2023-04-02T05:57:03;5.50;99.90
23207;DHT22;11773;52.570;13.052;2023-04-02T05:59:41;5.40;99.90
23207;DHT22;11773;52.570;13.052;2023-04-02T06:02:30;5.60;99.90
23207;DHT22;11773;52.570;13.052;2023-04-02T06:05:14;5.50;99.90
23207;DHT22;11773;52.570;13.052;2023-04-02T06:08:01;5.40;99.90
23207;DHT22;11773;52.570;13.052;2023-04-02T06:10:36;5.50;99.90
23207;DHT22;11773;52.570;13.052;2023-04-02T06:13:07;5.40;99.90
23207;DHT22;11773;52.570;13.052;2023-04-02T06:15:40;5.40;99.90
23207;DHT22;11773;52.570;13.052;2023-04-02T06:18:16;5.50;99.90
23207;DHT22;11773;52.570;13.052;2023-04-02T06:20:47;5.50;99.90
23207;DHT22;11773;52.570;13.052;2023-04-02T06:23:25;5.60;99.90
23207;DHT22;11773;52.570;13.052;2023-04-02T06:29:19;5.60;99.90
23207;DHT22;11773;52.570;13.052;2023-04-02T06:32:08;5.50;99.90
23207;DHT22;11773;52.570;13.052;2023-04-02T06:34:40;5.30;99.90
23207;DHT22;11773;52.570;13.052;2023-04-02T06:37:25;5.40;99.90
23207;DHT22;11773;52.570;13.052;2023-04-02T06:39:57;5.70;99.90
23207;DHT22;11773;52.570;13.052;2023-04-02T06:42:36;5.50;99.90
23207;DHT22;11773;52.570;13.052;2023-04-02T06:45:13;5.70;99.90
23207;DHT22;11773;52.570;13.052;2023-04-02T06:47:55;5.80;99.90
23207;DHT22;11773;52.570;13.052;2023-04-02T06:53:28;6.40;99.90
23207;DHT22;11773;52.570;13.052;2023-04-02T06:56:21;6.30;99.90
23207;DHT22;11773;52.570;13.052;2023-04-02T06:58:58;6.30;99.90
23207;DHT22;11773;52.570;13.052;2023-04-02T07:01:32;6.40;99.90
23207;DHT22;11773;52.570;13.052;2023-04-02T07:04:09;6.10;99.90
23207;DHT22;11773;52.570;13.052;2023-04-02T07:06:40;6.20;99.90
23207;DHT22;11773;52.570;13.052;2023-04-02T07:09:09;6.20;99.90
23207;DHT22;11773;52.570;13.052;2023-04-02T07:11:39;6.10;99.90
23207;DHT22;11773;52.570;13.052;2023-04-02T07:14:12;6.00;99.90
23207;DHT22;11773;52.570;13.052;2023-04-02T07:16:42;6.10;99.90
23207;DHT22;11773;52.570;13.052;2023-04-02T07:19:21;6.20;99.90
23207;DHT22;11773;52.570;13.052;2023-04-02T07:21:51;6.30;99.90
23207;DHT22;11773;52.570;13.052;2023-04-02T07:24:20;6.10;99.90
23207;DHT22;11773;52.570;13.052;2023-04-02T07:26:50;6.00;99.90
23207;DHT22;11773;52.570;13.052;2023-04-02T07:29:19;6.10;99.90
23207;DHT22;11773;52.570;13.052;2023-04-02T07:31:49;6.20;99.90
23207;DHT22;11773;52.570;13.052;2023-04-02T07:34:20;6.30;99.90
23207;DHT22;11773;52.570;13.052;2023-04-02T07:36:50;6.30;99.90
23207;DHT22;11773;52.570;13.052;2023-04-02T07:39:19;6.50;99.90
23207;DHT22;11773;52.570;13.052;2023-04-02T07:41:57;6.50;99.90
23207;DHT22;11773;52.570;13.052;2023-04-02T07:44:29;6.40;99.90
23207;DHT22;11773;52.570;13.052;2023-04-02T07:46:59;6.40;99.90
23207;DHT22;11773;52.570;13.052;2023-04-02T07:49:28;6.50;99.90
23207;DHT22;11773;52.570;13.052;2023-04-02T07:51:58;6.50;99.90
23207;DHT22;11773;52.570;13.052;2023-04-02T07:54:28;6.60;99.90
23207;DHT22;11773;52.570;13.052;2023-04-02T07:56:57;6.60;99.90
23207;DHT22;11773;52.570;13.052;2023-04-02T07:59:27;6.50;99.90
23207;DHT22;11773;52.570;13.052;2023-04-02T08:01:56;6.50;99.90
23207;DHT22;11773;52.570;13.052;2023-04-02T08:04:26;6.80;99.90
23207;DHT22;11773;52.570;13.052;2023-04-02T08:06:55;6.80;99.90
23207;DHT22;11773;52.570;13.052;2023-04-02T08:09:25;6.80;99.90
23207;DHT22;11773;52.570;13.052;2023-04-02T08:11:54;6.60;99.90
23207;DHT22;11773;52.570;13.052;2023-04-02T08:14:24;6.70;99.90
23207;DHT22;11773;52.570;13.052;2023-04-02T08:16:54;6.70;99.90
23207;DHT22;11773;52.570;13.052;2023-04-02T08:19:24;6.80;99.90
23207;DHT22;11773;52.570;13.052;2023-04-02T08:21:53;6.70;99.90
23207;DHT22;11773;52.570;13.052;2023-04-02T08:24:23;6.70;99.90
23207;DHT22;11773;52.570;13.052;2023-04-02T08:26:52;6.90;99.90
23207;DHT22;11773;52.570;13.052;2023-04-02T08:29:22;7.00;99.90
23207;DHT22;11773;52.570;13.052;2023-04-02T08:31:52;7.00;99.90
23207;DHT22;11773;52.570;13.052;2023-04-02T08:34:21;6.90;99.90
23207;DHT22;11773;52.570;13.052;2023-04-02T08:36:55;6.90;99.90
23207;DHT22;11773;52.570;13.052;2023-04-02T08:39:26;6.90;99.90
23207;DHT22;11773;52.570;13.052;2023-04-02T08:42:06;7.10;99.90
23207;DHT22;11773;52.570;13.052;2023-04-02T08:47:52;7.30;99.90
23207;DHT22;11773;52.570;13.052;2023-04-02T08:50:35;7.20;99.90
23207;DHT22;11773;52.570;13.052;2023-04-02T08:53:35;7.10;99.90
23207;DHT22;11773;52.570;13.052;2023-04-02T08:58:46;7.20;99.90
23207;DHT22;11773;52.570;13.052;2023-04-02T09:01:29;7.30;99.90
23207;DHT22;11773;52.570;13.052;2023-04-02T09:04:16;7.50;99.90
23207;DHT22;11773;52.570;13.052;2023-04-02T09:06:52;7.70;99.90
23207;DHT22;11773;52.570;13.052;2023-04-02T09:09:24;7.60;99.90
23207;DHT22;11773;52.570;13.052;2023-04-02T09:12:02;8.10;99.90
23207;DHT22;11773;52.570;13.052;2023-04-02T09:14:41;8.30;99.90
23207;DHT22;11773;52.570;13.052;2023-04-02T09:17:21;8.40;99.90
23207;DHT22;11773;52.570;13.052;2023-04-02T09:22:49;8.30;99.90
23207;DHT22;11773;52.570;13.052;2023-04-02T09:25:23;7.90;99.90
23207;DHT22;11773;52.570;13.052;2023-04-02T09:27:57;8.00;99.90
23207;DHT22;11773;52.570;13.052;2023-04-02T09:33:44;8.10;99.90
23207;DHT22;11773;52.570;13.052;2023-04-02T09:36:33;7.80;99.90
23207;DHT22;11773;52.570;13.052;2023-04-02T09:39:16;8.20;99.90
23207;DHT22;11773;52.570;13.052;2023-04-02T09:41:48;8.50;99.90
23207;DHT22;11773;52.570;13.052;2023-04-02T09:44:26;8.70;99.90
23207;DHT22;11773;52.570;13.052;2023-04-02T09:47:02;8.80;99.90
23207;DHT22;11773;52.570;13.052;2023-04-02T09:49:36;9.00;99.90
23207;DHT22;11773;52.570;13.052;2023-04-02T09:52:19;8.70;99.90
23207;DHT22;11773;52.570;13.052;2023-04-02T09:57:49;8.60;99.90
23207;DHT22;11773;52.570;13.052;2023-04-02T10:00:24;8.90;99.90
23207;DHT22;11773;52.570;13.052;2023-04-02T10:05:33;8.80;99.90
23207;DHT22;11773;52.570;13.052;2023-04-02T10:08:15;8.80;99.90
23207;DHT22;11773;52.570;13.052;2023-04-02T10:10:49;8.80;99.90
23207;DHT22;11773;52.570;13.052;2023-04-02T10:13:48;8.60;99.90
23207;DHT22;11773;52.570;13.052;2023-04-02T10:16:21;8.70;99.90
23207;DHT22;11773;52.570;13.052;2023-04-02T10:21:57;8.70;99.90
23207;DHT22;11773;52.570;13.052;2023-04-02T10:24:30;8.70;99.90
23207;DHT22;11773;52.570;13.052;2023-04-02T10:30:01;8.60;99.90
23207;DHT22;11773;52.570;13.052;2023-04-02T10:32:43;8.60;99.90
23207;DHT22;11773;52.570;13.052;2023-04-02T10:35:33;8.50;99.90
23207;DHT22;11773;52.570;13.052;2023-04-02T10:38:30;8.70;99.90
23207;DHT22;11773;52.570;13.052;2023-04-02T10:41:35;8.90;99.90
23207;DHT22;11773;52.570;13.052;2023-04-02T10:50:12;9.00;99.90
23207;DHT22;11773;52.570;13.052;2023-04-02T10:53:05;9.00;99.90
23207;DHT22;11773;52.570;13.052;2023-04-02T10:55:47;8.90;99.90
23207;DHT22;11773;52.570;13.052;2023-04-02T10:58:25;8.90;99.90
23207;DHT22;11773;52.570;13.052;2023-04-02T11:01:04;9.10;99.90
23207;DHT22;11773;52.570;13.052;2023-04-02T11:03:56;9.20;99.90
23207;DHT22;11773;52.570;13.052;2023-04-02T11:06:31;9.20;99.90
23207;DHT22;11773;52.570;13.052;2023-04-02T11:09:04;9.20;99.90
23207;DHT22;11773;52.570;13.052;2023-04-02T11:11:38;9.10;99.90
23207;DHT22;11773;52.570;13.052;2023-04-02T11:14:21;9.40;99.90
23207;DHT22;11773;52.570;13.052;2023-04-02T11:16:51;9.40;99.90
23207;DHT22;11773;52.570;13.052;2023-04-02T11:19:26;9.50;99.90
23207;DHT22;11773;52.570;13.052;2023-04-02T11:22:19;9.80;99.90
23207;DHT22;11773;52.570;13.052;2023-04-02T11:24:52;10.20;99.90
23207;DHT22;11773;52.570;13.052;2023-04-02T11:27:26;10.30;99.90
23207;DHT22;11773;52.570;13.052;2023-04-02T11:30:26;10.50;99.90
23207;DHT22;11773;52.570;13.052;2023-04-02T11:33:05;10.70;99.90
23207;DHT22;11773;52.570;13.052;2023-04-02T11:40:58;9.70;99.90
23207;DHT22;11773;52.570;13.052;2023-04-02T11:48:55;9.60;99.90
23207;DHT22;11773;52.570;13.052;2023-04-02T11:51:49;9.80;99.90
23207;DHT22;11773;52.570;13.052;2023-04-02T11:54:25;9.70;99.90
23207;DHT22;11773;52.570;13.052;2023-04-02T11:57:18;9.70;99.90
23207;DHT22;11773;52.570;13.052;2023-04-02T12:00:19;10.00;99.90
23207;DHT22;11773;52.570;13.052;2023-04-02T12:03:08;9.90;99.90
23207;DHT22;11773;52.570;13.052;2023-04-02T12:05:52;10.00;99.90
23207;DHT22;11773;52.570;13.052;2023-04-02T12:08:48;9.90;99.90
23207;DHT22;11773;52.570;13.052;2023-04-02T12:11:39;10.10;99.90
23207;DHT22;11773;52.570;13.052;2023-04-02T12:14:31;9.80;99.90
23207;DHT22;11773;52.570;13.052;2023-04-02T12:17:04;9.50;99.90
23207;DHT22;11773;52.570;13.052;2023-04-02T12:19:50;9.40;99.90
23207;DHT22;11773;52.570;13.052;2023-04-02T12:22:29;9.60;99.90
23207;DHT22;11773;52.570;13.052;2023-04-02T12:25:26;10.10;99.90
23207;DHT22;11773;52.570;13.052;2023-04-02T12:28:16;10.10;99.90
23207;DHT22;11773;52.570;13.052;2023-04-02T12:30:48;10.30;99.90
23207;DHT22;11773;52.570;13.052;2023-04-02T12:33:34;9.90;99.90
23207;DHT22;11773;52.570;13.052;2023-04-02T12:36:16;9.60;99.90
23207;DHT22;11773;52.570;13.052;2023-04-02T12:38:59;10.00;99.90
23207;DHT22;11773;52.570;13.052;2023-04-02T12:41:27;9.40;99.90
23207;DHT22;11773;52.570;13.052;2023-04-02T12:44:01;9.80;99.90
23207;DHT22;11773;52.570;13.052;2023-04-02T12:46:34;10.10;99.90
23207;DHT22;11773;52.570;13.052;2023-04-02T12:49:05;10.10;99.90
23207;DHT22;11773;52.570;13.052;2023-04-02T12:51:37;10.10;99.90
23207;DHT22;11773;52.570;13.052;2023-04-02T12:54:12;9.70;99.90
23207;DHT22;11773;52.570;13.052;2023-04-02T12:56:44;9.70;99.90
23207;DHT22;11773;52.570;13.052;2023-04-02T12:59:34;9.90;99.90
23207;DHT22;11773;52.570;13.052;2023-04-02T13:02:23;9.80;99.90
23207;DHT22;11773;52.570;13.052;2023-04-02T13:04:57;9.60;99.90
23207;DHT22;11773;52.570;13.052;2023-04-02T13:07:31;9.70;99.90
23207;DHT22;11773;52.570;13.052;2023-04-02T13:10:03;9.90;99.90
23207;DHT22;11773;52.570;13.052;2023-04-02T13:12:37;9.70;99.90
23207;DHT22;11773;52.570;13.052;2023-04-02T13:15:22;9.90;99.90
23207;DHT22;11773;52.570;13.052;2023-04-02T13:18:19;9.70;99.90
23207;DHT22;11773;52.570;13.052;2023-04-02T13:21:04;9.80;99.90
23207;DHT22;11773;52.570;13.052;2023-04-02T13:23:48;9.90;99.90
23207;DHT22;11773;52.570;13.052;2023-04-02T13:26:26;9.80;99.90
23207;DHT22;11773;52.570;13.052;2023-04-02T13:28:59;9.90;99.90
23207;DHT22;11773;52.570;13.052;2023-04-02T13:31:31;9.90;99.90
23207;DHT22;11773;52.570;13.052;2023-04-02T13:34:00;9.70;99.90
23207;DHT22;11773;52.570;13.052;2023-04-02T13:36:30;9.80;99.90
23207;DHT22;11773;52.570;13.052;2023-04-02T13:39:00;9.90;99.90
23207;DHT22;11773;52.570;13.052;2023-04-02T13:41:41;10.10;99.90
23207;DHT22;11773;52.570;13.052;2023-04-02T13:44:33;10.20;99.90
23207;DHT22;11773;52.570;13.052;2023-04-02T13:47:01;10.30;99.90
23207;DHT22;11773;52.570;13.052;2023-04-02T13:49:31;10.20;99.90
23207;DHT22;11773;52.570;13.052;2023-04-02T13:52:01;9.80;99.90
23207;DHT22;11773;52.570;13.052;2023-04-02T13:54:43;10.00;99.90
23207;DHT22;11773;52.570;13.052;2023-04-02T13:57:25;10.00;99.90
23207;DHT22;11773;52.570;13.052;2023-04-02T13:59:55;10.10;99.90
23207;DHT22;11773;52.570;13.052;2023-04-02T14:02:25;10.10;99.90
23207;DHT22;11773;52.570;13.052;2023-04-02T14:05:12;10.30;99.90
23207;DHT22;11773;52.570;13.052;2023-04-02T14:08:10;10.30;99.90
23207;DHT22;11773;52.570;13.052;2023-04-02T14:10:50;10.30;99.90
23207;DHT22;11773;52.570;13.052;2023-04-02T14:18:58;9.90;99.90
23207;DHT22;11773;52.570;13.052;2023-04-02T14:21:34;9.70;99.90
23207;DHT22;11773;52.570;13.052;2023-04-02T14:24:28;9.40;99.90
23207;DHT22;11773;52.570;13.052;2023-04-02T14:30:03;9.90;99.90
23207;DHT22;11773;52.570;13.052;2023-04-02T14:33:08;10.10;99.90
23207;DHT22;11773;52.570;13.052;2023-04-02T14:35:46;9.80;99.90
23207;DHT22;11773;52.570;13.052;2023-04-02T14:38:29;9.50;99.90
23207;DHT22;11773;52.570;13.052;2023-04-02T14:41:26;9.70;99.90
23207;DHT22;11773;52.570;13.052;2023-04-02T14:44:04;9.60;99.90
23207;DHT22;11773;52.570;13.052;2023-04-02T14:46:36;9.50;99.90
23207;DHT22;11773;52.570;13.052;2023-04-02T14:52:05;9.20;99.90
23207;DHT22;11773;52.570;13.052;2023-04-02T14:54:45;9.10;99.90
23207;DHT22;11773;52.570;13.052;2023-04-02T14:57:28;9.40;99.90
23207;DHT22;11773;52.570;13.052;2023-04-02T15:03:12;9.50;99.90
23207;DHT22;11773;52.570;13.052;2023-04-02T15:05:57;9.40;99.90
23207;DHT22;11773;52.570;13.052;2023-04-02T15:08:37;9.30;99.90
23207;DHT22;11773;52.570;13.052;2023-04-02T15:11:32;9.10;99.90
23207;DHT22;11773;52.570;13.052;2023-04-02T15:16:48;9.20;99.90
23207;DHT22;11773;52.570;13.052;2023-04-02T15:19:18;9.00;99.90
23207;DHT22;11773;52.570;13.052;2023-04-02T15:24:43;9.10;99.90
23207;DHT22;11773;52.570;13.052;2023-04-02T15:28:10;9.10;99.90
23207;DHT22;11773;52.570;13.052;2023-04-02T15:30:32;9.10;99.90
23207;DHT22;11773;52.570;13.052;2023-04-02T15:35:51;8.60;99.90
23207;DHT22;11773;52.570;13.052;2023-04-02T15:38:34;8.50;99.90
23207;DHT22;11773;52.570;13.052;2023-04-02T15:41:08;8.50;99.90
23207;DHT22;11773;52.570;13.052;2023-04-02T15:44:12;8.70;99.90
23207;DHT22;11773;52.570;13.052;2023-04-02T15:50:57;8.80;99.90
23207;DHT22;11773;52.570;13.052;2023-04-02T15:52:48;8.80;99.90
23207;DHT22;11773;52.570;13.052;2023-04-02T15:55:31;8.90;99.90
23207;DHT22;11773;52.570;13.052;2023-04-02T16:01:16;8.80;99.90
23207;DHT22;11773;52.570;13.052;2023-04-02T16:10:14;8.60;99.90
23207;DHT22;11773;52.570;13.052;2023-04-02T16:12:54;8.80;99.90
23207;DHT22;11773;52.570;13.052;2023-04-02T16:15:38;8.90;99.90
23207;DHT22;11773;52.570;13.052;2023-04-02T16:18:27;8.60;99.90
23207;DHT22;11773;52.570;13.052;2023-04-02T16:21:14;8.50;99.90
23207;DHT22;11773;52.570;13.052;2023-04-02T16:23:46;8.40;99.90
23207;DHT22;11773;52.570;13.052;2023-04-02T16:26:51;8.70;99.90
23207;DHT22;11773;52.570;13.052;2023-04-02T16:29:32;8.70;99.90
23207;DHT22;11773;52.570;13.052;2023-04-02T16:32:38;8.70;99.90
23207;DHT22;11773;52.570;13.052;2023-04-02T16:35:41;8.50;99.90
23207;DHT22;11773;52.570;13.052;2023-04-02T16:38:23;8.40;99.90
23207;DHT22;11773;52.570;13.052;2023-04-02T16:41:22;8.30;99.90
23207;DHT22;11773;52.570;13.052;2023-04-02T16:46:50;8.20;99.90
23207;DHT22;11773;52.570;13.052;2023-04-02T16:52:18;8.30;99.90
23207;DHT22;11773;52.570;13.052;2023-04-02T16:57:42;8.20;99.90
23207;DHT22;11773;52.570;13.052;2023-04-02T17:00:36;8.00;99.90
23207;DHT22;11773;52.570;13.052;2023-04-02T17:06:34;7.90;99.90
23207;DHT22;11773;52.570;13.052;2023-04-02T17:09:21;7.90;99.90
23207;DHT22;11773;52.570;13.052;2023-04-02T17:14:44;7.40;99.90
23207;DHT22;11773;52.570;13.052;2023-04-02T17:17:22;7.40;99.90
23207;DHT22;11773;52.570;13.052;2023-04-02T17:19:59;7.40;99.90
23207;DHT22;11773;52.570;13.052;2023-04-02T17:22:29;7.40;99.90
23207;DHT22;11773;52.570;13.052;2023-04-02T17:25:03;7.30;99.90
23207;DHT22;11773;52.570;13.052;2023-04-02T17:27:42;7.40;99.90
23207;DHT22;11773;52.570;13.052;2023-04-02T17:30:23;7.20;99.90
23207;DHT22;11773;52.570;13.052;2023-04-02T17:33:16;7.30;99.90
23207;DHT22;11773;52.570;13.052;2023-04-02T17:42:04;7.20;99.90
23207;DHT22;11773;52.570;13.052;2023-04-02T17:44:40;7.10;99.90
23207;DHT22;11773;52.570;13.052;2023-04-02T17:50:14;6.80;99.90
23207;DHT22;11773;52.570;13.052;2023-04-02T17:55:53;7.00;99.90
23207;DHT22;11773;52.570;13.052;2023-04-02T17:58:48;6.90;99.90
23207;DHT22;11773;52.570;13.052;2023-04-02T18:01:30;6.60;99.90
23207;DHT22;11773;52.570;13.052;2023-04-02T18:07:20;6.90;99.90
23207;DHT22;11773;52.570;13.052;2023-04-02T18:15:44;6.70;99.90
23207;DHT22;11773;52.570;13.052;2023-04-02T18:18:37;6.70;99.90
23207;DHT22;11773;52.570;13.052;2023-04-02T18:21:22;6.70;99.90
23207;DHT22;11773;52.570;13.052;2023-04-02T18:24:25;6.60;99.90
23207;DHT22;11773;52.570;13.052;2023-04-02T18:27:10;6.60;99.90
23207;DHT22;11773;52.570;13.052;2023-04-02T18:33:17;6.70;99.90
23207;DHT22;11773;52.570;13.052;2023-04-02T18:36:14;6.60;99.90
23207;DHT22;11773;52.570;13.052;2023-04-02T18:41:43;6.30;99.90
23207;DHT22;11773;52.570;13.052;2023-04-02T18:47:34;6.20;99.90
23207;DHT22;11773;52.570;13.052;2023-04-02T18:50:10;6.20;99.90
23207;DHT22;11773;52.570;13.052;2023-04-02T18:52:44;6.10;99.90
23207;DHT22;11773;52.570;13.052;2023-04-02T18:57:57;6.10;99.90
23207;DHT22;11773;52.570;13.052;2023-04-02T19:00:39;5.90;99.90
23207;DHT22;11773;52.570;13.052;2023-04-02T19:03:31;6.00;99.90
23207;DHT22;11773;52.570;13.052;2023-04-02T19:06:17;6.10;99.90
23207;DHT22;11773;52.570;13.052;2023-04-02T19:09:21;6.10;99.90
23207;DHT22;11773;52.570;13.052;2023-04-02T19:11:56;6.00;99.90
23207;DHT22;11773;52.570;13.052;2023-04-02T19:14:25;5.80;99.90
23207;DHT22;11773;52.570;13.052;2023-04-02T19:17:19;5.90;99.90
23207;DHT22;11773;52.570;13.052;2023-04-02T19:23:07;5.90;99.90
23207;DHT22;11773;52.570;13.052;2023-04-02T19:26:02;5.70;99.90
23207;DHT22;11773;52.570;13.052;2023-04-02T19:28:38;5.50;99.90
23207;DHT22;11773;52.570;13.052;2023-04-02T19:34:42;5.80;99.90
23207;DHT22;11773;52.570;13.052;2023-04-02T19:40:22;5.40;99.90
23207;DHT22;11773;52.570;13.052;2023-04-02T19:42:52;5.50;99.90
23207;DHT22;11773;52.570;13.052;2023-04-02T19:45:39;5.40;99.90
23207;DHT22;11773;52.570;13.052;2023-04-02T19:48:13;5.50;99.90
23207;DHT22;11773;52.570;13.052;2023-04-02T19:50:48;5.30;99.90
23207;DHT22;11773;52.570;13.052;2023-04-02T19:53:18;5.40;99.90
23207;DHT22;11773;52.570;13.052;2023-04-02T19:55:49;5.40;99.90
23207;DHT22;11773;52.570;13.052;2023-04-02T19:58:27;5.50;99.90
23207;DHT22;11773;52.570;13.052;2023-04-02T20:00:59;5.50;99.90